createdAt,value
2019-03-11T00:02:45.153Z,72.14
2019-03-11T00:05:35.170Z,72.80
2019-03-11T00:08:24.453Z,73.17
2019-03-11T00:11:14.277Z,72.32
2019-03-11T00:14:05.824Z,73.26
2019-03-11T00:16:55.489Z,72.73
2019-03-11T00:19:45.285Z,72.51
2019-03-11T00:22:35.247Z,73.43
2019-03-11T00:25:24.981Z,73.81
2019-03-11T00:28:14.669Z,73.40
2019-03-11T00:31:05.035Z,72.98
2019-03-11T00:33:55.042Z,73.48
2019-03-11T00:36:45.091Z,73.46
2019-03-11T00:39:34.876Z,72.66
2019-03-11T00:42:24.564Z,73.72
2019-03-11T00:45:15.767Z,73.64
2019-03-11T00:48:06.006Z,73.06
2019-03-11T00:50:55.891Z,72.44
2019-03-11T00:53:45.998Z,73.11
2019-03-11T00:56:36.102Z,74.27
2019-03-11T00:59:25.709Z,73.72
2019-03-11T01:02:15.347Z,73.44
2019-03-11T01:05:05.872Z,73.57
2019-03-11T01:07:55.957Z,72.47
2019-03-11T01:10:45.847Z,73.37
2019-03-11T01:13:35.827Z,71.59
2019-03-11T01:16:25.695Z,73.10
2019-03-11T01:19:15.229Z,72.85
2019-03-11T01:22:05.234Z,72.76
2019-03-11T01:24:55.444Z,72.94
2019-03-11T01:27:45.107Z,73.06
2019-03-11T01:30:34.938Z,72.93
2019-03-11T01:33:25.003Z,71.53
2019-03-11T01:36:15.095Z,71.26
2019-03-11T01:39:06.367Z,72.09
2019-03-11T01:41:56.488Z,72.23
2019-03-11T01:44:46.320Z,71.62
2019-03-11T01:47:36.188Z,71.22
2019-03-11T01:50:26.255Z,70.74
2019-03-11T01:53:16.275Z,72.35
2019-03-11T01:56:06.143Z,72.40
2019-03-11T01:58:56.118Z,71.14
2019-03-11T02:01:48.290Z,71.33
2019-03-11T02:04:37.471Z,71.98
2019-03-11T02:07:27.353Z,71.09
2019-03-11T02:10:17.813Z,70.66
2019-03-11T02:13:07.676Z,71.95
2019-03-11T02:16:09.638Z,71.62
2019-03-11T02:18:59.428Z,71.50
2019-03-11T02:21:49.247Z,71.64
2019-03-11T02:24:39.157Z,70.89
2019-03-11T02:27:29.970Z,71.71
2019-03-11T02:30:19.885Z,71.46
2019-03-11T02:33:09.985Z,71.29
2019-03-11T02:36:00.130Z,71.38
2019-03-11T02:38:50.598Z,71.06
2019-03-11T02:41:40.865Z,70.55
2019-03-11T02:44:30.611Z,71.20
2019-03-11T02:47:20.538Z,70.62
2019-03-11T02:50:10.795Z,71.33
2019-03-11T02:53:00.587Z,69.53
2019-03-11T02:55:51.455Z,70.99
2019-03-11T02:58:41.351Z,71.63
2019-03-11T03:01:50.598Z,69.26
2019-03-11T03:04:43.643Z,70.61
2019-03-11T03:07:33.153Z,71.02
2019-03-11T03:10:23.305Z,71.19
2019-03-11T03:13:13.287Z,70.48
2019-03-11T03:16:03.297Z,71.12
2019-03-11T03:18:52.867Z,70.72
2019-03-11T03:21:42.439Z,71.40
2019-03-11T03:24:31.999Z,71.62
2019-03-11T03:27:21.842Z,71.64
2019-03-11T03:30:17.030Z,72.15
2019-03-11T03:33:07.166Z,71.74
2019-03-11T03:35:56.952Z,71.27
2019-03-11T03:38:47.141Z,71.12
2019-03-11T03:41:37.314Z,71.88
2019-03-11T03:44:27.924Z,71.69
2019-03-11T03:47:17.456Z,71.91
2019-03-11T03:50:08.226Z,71.42
2019-03-11T03:52:58.467Z,70.73
2019-03-11T03:55:48.039Z,71.17
2019-03-11T03:58:37.942Z,70.15
2019-03-11T04:01:27.963Z,71.16
2019-03-11T04:04:17.937Z,71.42
2019-03-11T04:07:07.984Z,71.22
2019-03-11T04:09:57.413Z,71.88
2019-03-11T04:12:47.327Z,72.19
2019-03-11T04:15:37.456Z,71.76
2019-03-11T04:18:49.697Z,71.58
2019-03-11T04:21:39.687Z,68.12
2019-03-11T04:24:29.823Z,71.09
2019-03-11T04:27:20.366Z,70.37
2019-03-11T04:30:18.183Z,70.26
2019-03-11T04:33:08.042Z,71.83
2019-03-11T04:35:58.590Z,71.30
2019-03-11T04:38:48.665Z,71.47
2019-03-11T04:41:38.392Z,71.63
2019-03-11T04:44:28.452Z,69.33
2019-03-11T04:47:18.475Z,70.65
2019-03-11T04:50:10.890Z,71.18
2019-03-11T04:53:00.835Z,71.78
2019-03-11T04:55:51.072Z,71.54
2019-03-11T04:58:41.115Z,71.56
2019-03-11T05:01:32.208Z,71.91
2019-03-11T05:04:22.398Z,71.80
2019-03-11T05:07:12.193Z,72.33
2019-03-11T05:10:02.167Z,73.05
2019-03-11T05:12:52.256Z,72.93
2019-03-11T05:15:42.236Z,72.80
2019-03-11T05:18:32.648Z,72.83
2019-03-11T05:21:22.719Z,72.93
2019-03-11T05:24:13.080Z,72.82
2019-03-11T05:27:03.249Z,72.51
2019-03-11T05:29:52.604Z,72.63
2019-03-11T05:32:42.422Z,72.15
2019-03-11T05:35:32.562Z,72.33
2019-03-11T05:38:22.440Z,72.09
2019-03-11T05:41:12.276Z,72.25
2019-03-11T05:44:02.385Z,72.38
2019-03-11T05:46:52.385Z,72.75
2019-03-11T05:49:42.593Z,72.42
2019-03-11T05:52:32.608Z,72.80
2019-03-11T05:55:22.868Z,72.62
2019-03-11T05:58:12.852Z,72.81
2019-03-11T06:01:02.749Z,72.26
2019-03-11T06:03:52.836Z,71.41
2019-03-11T06:06:42.774Z,72.14
2019-03-11T06:09:32.612Z,70.66
2019-03-11T06:12:22.994Z,70.28
2019-03-11T06:15:14.770Z,70.58
2019-03-11T06:18:04.372Z,70.18
2019-03-11T06:21:15.844Z,70.85
2019-03-11T06:24:06.097Z,70.64
2019-03-11T06:26:56.295Z,70.63
2019-03-11T06:29:46.137Z,70.76
2019-03-11T06:32:35.887Z,69.97
2019-03-11T06:35:25.912Z,69.92
2019-03-11T06:38:15.958Z,70.54
2019-03-11T06:41:06.301Z,70.25
2019-03-11T06:43:56.507Z,70.49
2019-03-11T06:46:46.477Z,67.91
2019-03-11T06:49:36.343Z,69.84
2019-03-11T06:52:26.056Z,69.54
2019-03-11T06:55:16.257Z,69.70
2019-03-11T06:58:05.961Z,69.65
2019-03-11T07:00:55.800Z,70.55
2019-03-11T07:03:46.236Z,70.63
2019-03-11T07:06:36.003Z,70.97
2019-03-11T07:09:26.365Z,71.01
2019-03-11T07:12:16.660Z,71.24
2019-03-11T07:15:07.892Z,71.40
2019-03-11T07:17:57.782Z,71.12
2019-03-11T07:20:47.168Z,71.40
2019-03-11T07:23:37.105Z,71.72
2019-03-11T07:26:27.000Z,71.84
2019-03-11T07:29:17.082Z,72.37
2019-03-11T07:32:06.916Z,72.04
2019-03-11T07:35:07.644Z,73.18
2019-03-11T07:37:48.519Z,72.68
2019-03-11T07:40:38.829Z,71.79
2019-03-11T07:43:28.849Z,71.21
2019-03-11T07:46:19.144Z,70.35
2019-03-11T07:49:08.924Z,70.37
2019-03-11T07:51:58.901Z,69.46
2019-03-11T07:54:48.897Z,69.10
2019-03-11T07:57:39.004Z,68.93
2019-03-11T08:00:29.178Z,68.80
2019-03-11T08:03:19.527Z,68.40
2019-03-11T08:06:18.072Z,68.33
2019-03-11T08:09:02.099Z,69.16
2019-03-11T08:11:53.394Z,66.03
2019-03-11T08:14:43.430Z,67.18
2019-03-11T08:17:33.506Z,67.16
2019-03-11T08:20:23.362Z,67.35
2019-03-11T08:23:12.891Z,67.90
2019-03-11T08:26:02.920Z,64.68
2019-03-11T08:28:53.001Z,67.99
2019-03-11T08:31:43.006Z,67.16
2019-03-11T08:34:33.286Z,63.75
2019-03-11T08:37:23.329Z,65.76
2019-03-11T08:40:14.694Z,65.28
2019-03-11T08:43:04.452Z,64.06
2019-03-11T08:45:54.256Z,59.25
2019-03-11T08:48:44.208Z,63.86
2019-03-11T08:51:34.722Z,63.37
2019-03-11T08:54:24.615Z,65.02
2019-03-11T08:57:14.628Z,62.53
2019-03-11T09:00:05.822Z,64.54
2019-03-11T09:02:56.037Z,63.46
2019-03-11T09:05:46.659Z,65.54
2019-03-11T09:08:36.607Z,65.55
2019-03-11T09:11:26.598Z,63.75
2019-03-11T09:14:16.457Z,64.35
2019-03-11T09:17:07.014Z,62.60
2019-03-11T09:19:57.041Z,63.32
2019-03-11T09:22:47.162Z,63.32
2019-03-11T09:25:37.509Z,63.69
2019-03-11T09:28:27.870Z,62.01
2019-03-11T09:31:17.550Z,59.36
2019-03-11T09:34:07.980Z,58.57
2019-03-11T09:36:57.523Z,59.13
2019-03-11T09:39:47.364Z,56.54
2019-03-11T09:42:37.267Z,57.01
2019-03-11T09:45:27.599Z,58.19
2019-03-11T09:48:17.408Z,58.26
2019-03-11T09:51:07.810Z,55.69
2019-03-11T09:53:57.801Z,58.26
2019-03-11T09:56:47.812Z,58.29
2019-03-11T09:59:37.953Z,59.69
2019-03-11T10:02:28.420Z,56.44
2019-03-11T10:05:17.927Z,57.78
2019-03-11T10:08:07.815Z,56.45
2019-03-11T10:10:57.321Z,55.88
2019-03-11T10:13:47.318Z,58.85
2019-03-11T10:16:37.157Z,57.88
2019-03-11T10:19:26.699Z,57.68
2019-03-11T10:22:17.321Z,58.63
2019-03-11T10:25:08.191Z,57.20
2019-03-11T10:27:58.105Z,57.83
2019-03-11T10:30:49.339Z,52.10
2019-03-11T10:33:39.276Z,52.12
2019-03-11T10:36:29.615Z,45.37
2019-03-11T10:39:19.429Z,48.39
2019-03-11T10:42:09.932Z,47.94
2019-03-11T10:44:59.750Z,49.81
2019-03-11T10:47:49.936Z,50.95
2019-03-11T10:50:40.221Z,47.90
2019-03-11T10:53:31.195Z,47.59
2019-03-11T10:56:21.411Z,51.99
2019-03-11T10:59:11.376Z,52.89
2019-03-11T11:02:01.724Z,51.47
2019-03-11T11:04:52.869Z,50.53
2019-03-11T11:07:42.975Z,54.34
2019-03-11T11:10:33.424Z,55.86
2019-03-11T11:13:23.665Z,55.38
2019-03-11T11:16:13.531Z,54.12
2019-03-11T11:19:03.498Z,56.26
2019-03-11T11:21:53.600Z,56.27
2019-03-11T11:24:43.475Z,53.89
2019-03-11T11:27:33.171Z,55.86
2019-03-11T11:30:24.285Z,56.51
2019-03-11T11:33:14.194Z,55.82
2019-03-11T11:36:03.981Z,55.21
2019-03-11T11:38:53.750Z,54.58
2019-03-11T11:41:44.062Z,55.61
2019-03-11T11:44:33.865Z,57.19
2019-03-11T11:47:23.746Z,56.23
2019-03-11T11:50:16.475Z,53.38
2019-03-11T11:53:06.211Z,56.56
2019-03-11T11:55:58.008Z,54.95
2019-03-11T11:58:47.454Z,54.27
2019-03-11T12:01:37.407Z,54.01
2019-03-11T12:04:27.392Z,48.66
2019-03-11T12:07:17.015Z,49.42
2019-03-11T12:10:07.750Z,47.89
2019-03-11T12:12:57.653Z,48.21
2019-03-11T12:15:47.193Z,52.32
2019-03-11T12:18:36.940Z,50.81
2019-03-11T12:21:26.889Z,50.83
2019-03-11T12:24:17.112Z,52.25
2019-03-11T12:27:07.562Z,53.20
2019-03-11T12:29:58.049Z,52.50
2019-03-11T12:32:48.487Z,54.52
2019-03-11T12:35:38.468Z,54.65
2019-03-11T12:38:28.898Z,53.32
2019-03-11T12:41:19.455Z,53.08
2019-03-11T12:44:09.530Z,54.47
2019-03-11T12:46:59.232Z,52.75
2019-03-11T12:49:49.480Z,54.64
2019-03-11T12:52:39.845Z,52.84
2019-03-11T12:55:29.959Z,54.50
2019-03-11T12:58:20.470Z,55.02
2019-03-11T13:01:10.086Z,54.21
2019-03-11T13:03:59.927Z,53.55
2019-03-11T13:06:50.083Z,54.85
2019-03-11T13:09:40.209Z,53.63
2019-03-11T13:12:31.526Z,52.75
2019-03-11T13:15:22.425Z,52.39
2019-03-11T13:18:50.964Z,53.32
2019-03-11T13:21:42.738Z,53.87
2019-03-11T13:24:32.609Z,53.29
2019-03-11T13:27:22.711Z,55.29
2019-03-11T13:30:13.718Z,54.76
2019-03-11T13:33:03.698Z,54.40
2019-03-11T13:35:56.633Z,54.04
2019-03-11T13:38:45.850Z,52.24
2019-03-11T13:41:35.802Z,53.76
2019-03-11T13:44:26.217Z,53.57
2019-03-11T13:47:16.191Z,52.98
2019-03-11T13:50:08.074Z,53.62
2019-03-11T13:52:58.083Z,54.09
2019-03-11T13:55:47.997Z,52.44
2019-03-11T13:58:37.823Z,53.35
2019-03-11T14:01:27.963Z,54.77
2019-03-11T14:04:18.235Z,53.02
2019-03-11T14:07:07.956Z,55.94
2019-03-11T14:09:58.058Z,54.54
2019-03-11T14:12:47.692Z,54.80
2019-03-11T14:15:37.160Z,54.80
2019-03-11T14:18:27.363Z,54.20
2019-03-11T14:21:25.302Z,55.66
2019-03-11T14:24:09.171Z,55.19
2019-03-11T14:26:59.694Z,54.33
2019-03-11T14:29:49.554Z,54.74
2019-03-11T14:32:39.834Z,54.18
2019-03-11T14:35:29.520Z,54.67
2019-03-11T14:38:19.110Z,54.65
2019-03-11T14:41:08.957Z,55.43
2019-03-11T14:44:00.899Z,55.31
2019-03-11T14:46:50.393Z,55.26
2019-03-11T14:49:40.256Z,56.35
2019-03-11T14:52:30.252Z,56.60
2019-03-11T14:55:20.671Z,55.41
2019-03-11T14:58:10.778Z,56.14
2019-03-11T15:01:01.026Z,56.75
2019-03-11T15:03:50.985Z,57.19
2019-03-11T15:06:40.968Z,56.39
2019-03-11T15:09:31.149Z,56.79
2019-03-11T15:12:21.498Z,56.74
2019-03-11T15:15:14.497Z,56.87
2019-03-11T15:18:13.530Z,56.66
2019-03-11T15:21:04.502Z,57.11
2019-03-11T15:23:54.689Z,55.71
2019-03-11T15:26:44.724Z,54.94
2019-03-11T15:29:34.353Z,57.21
2019-03-11T15:32:24.177Z,58.03
2019-03-11T15:35:14.543Z,57.44
2019-03-11T15:38:04.622Z,57.38
2019-03-11T15:40:55.200Z,58.28
2019-03-11T15:43:45.343Z,57.88
2019-03-11T15:46:39.466Z,58.90
2019-03-11T15:49:27.371Z,57.67
2019-03-11T15:52:16.966Z,59.38
2019-03-11T15:55:07.481Z,58.81
2019-03-11T15:57:57.803Z,57.06
2019-03-11T16:00:47.796Z,57.38
2019-03-11T16:03:37.458Z,57.53
2019-03-11T16:06:27.454Z,58.04
2019-03-11T16:09:19.691Z,59.15
2019-03-11T16:12:09.604Z,58.27
2019-03-11T16:14:59.307Z,59.33
2019-03-11T16:17:49.394Z,59.83
2019-03-11T16:20:39.760Z,60.35
2019-03-11T16:23:29.692Z,61.24
2019-03-11T16:26:19.914Z,59.74
2019-03-11T16:29:10.480Z,60.66
2019-03-11T16:32:00.388Z,59.22
2019-03-11T16:34:50.800Z,61.01
2019-03-11T16:37:40.711Z,61.14
2019-03-11T16:40:30.832Z,61.61
2019-03-11T16:43:20.536Z,61.42
2019-03-11T16:46:10.853Z,61.90
2019-03-11T16:49:00.755Z,62.05
2019-03-11T16:51:50.781Z,62.38
2019-03-11T16:54:40.597Z,62.73
2019-03-11T16:57:30.500Z,63.55
2019-03-11T17:00:24.821Z,64.04
2019-03-11T17:03:14.757Z,64.42
2019-03-11T17:06:05.779Z,65.05
2019-03-11T17:08:57.205Z,65.40
2019-03-11T17:11:47.067Z,65.79
2019-03-11T17:14:37.081Z,65.94
2019-03-11T17:17:27.222Z,66.11
2019-03-11T17:20:17.754Z,66.31
2019-03-11T17:23:07.659Z,66.49
2019-03-11T17:25:57.840Z,66.56
2019-03-11T17:28:47.812Z,66.64
2019-03-11T17:31:38.115Z,66.75
2019-03-11T17:34:29.541Z,66.98
2019-03-11T17:37:19.664Z,67.13
2019-03-11T17:40:12.547Z,67.03
2019-03-11T17:43:02.438Z,67.15
2019-03-11T17:45:52.133Z,67.12
2019-03-11T17:48:42.849Z,67.16
2019-03-11T17:51:33.426Z,67.27
2019-03-11T17:54:23.217Z,67.48
2019-03-11T17:57:14.072Z,67.64
2019-03-11T18:00:06.245Z,67.86
2019-03-11T18:03:00.375Z,67.74
2019-03-11T18:05:49.850Z,68.12
2019-03-11T18:08:39.855Z,68.43
2019-03-11T18:11:30.573Z,68.13
2019-03-11T18:14:22.241Z,68.58
2019-03-11T18:17:12.014Z,68.83
2019-03-11T18:20:01.462Z,68.99
2019-03-11T18:22:51.665Z,69.23
2019-03-11T18:25:44.067Z,69.35
2019-03-11T18:28:34.170Z,69.17
2019-03-11T18:31:24.601Z,69.42
2019-03-11T18:34:14.947Z,69.41
2019-03-11T18:37:04.734Z,69.43
2019-03-11T18:39:56.017Z,69.38
2019-03-11T18:42:45.898Z,69.41
2019-03-11T18:45:36.202Z,69.32
2019-03-11T18:48:26.355Z,69.50
2019-03-11T18:51:16.375Z,69.48
2019-03-11T18:54:06.659Z,69.68
2019-03-11T18:56:56.630Z,69.60
2019-03-11T18:59:46.711Z,69.63
2019-03-11T19:02:36.883Z,69.39
2019-03-11T19:05:27.223Z,69.44
2019-03-11T19:08:17.259Z,69.58
2019-03-11T19:11:07.136Z,69.75
2019-03-11T19:13:56.791Z,69.57
2019-03-11T19:16:46.555Z,69.56
2019-03-11T19:19:45.592Z,69.20
2019-03-11T19:22:27.717Z,69.33
2019-03-11T19:25:17.604Z,69.79
2019-03-11T19:28:07.496Z,69.68
2019-03-11T19:30:57.440Z,69.31
2019-03-11T19:33:47.856Z,69.84
2019-03-11T19:36:37.976Z,69.79
2019-03-11T19:39:28.113Z,69.73
2019-03-11T19:42:18.132Z,69.45
2019-03-11T19:45:09.257Z,69.74
2019-03-11T19:47:59.178Z,69.46
2019-03-11T19:50:49.101Z,69.41
2019-03-11T19:53:39.009Z,69.21
2019-03-11T19:56:29.675Z,69.60
2019-03-11T19:59:19.793Z,69.59
2019-03-11T20:02:09.596Z,69.71
2019-03-11T20:04:59.513Z,69.68
2019-03-11T20:07:49.675Z,69.75
2019-03-11T20:10:40.764Z,69.67
2019-03-11T20:13:31.080Z,69.85
2019-03-11T20:16:21.573Z,69.62
2019-03-11T20:19:11.651Z,69.74
2019-03-11T20:22:01.102Z,69.65
2019-03-11T20:24:50.446Z,69.79
2019-03-11T20:27:40.411Z,69.82
2019-03-11T20:30:30.506Z,70.01
2019-03-11T20:33:20.329Z,70.13
2019-03-11T20:36:20.258Z,70.28
2019-03-11T20:39:01.878Z,70.11
2019-03-11T20:41:53.452Z,70.39
2019-03-11T20:44:43.862Z,70.57
2019-03-11T20:47:33.646Z,70.76
2019-03-11T20:50:23.464Z,70.82
2019-03-11T20:53:13.446Z,70.86
2019-03-11T20:56:03.704Z,71.00
2019-03-11T20:58:53.971Z,71.00
2019-03-11T21:01:44.087Z,71.09
2019-03-11T21:04:33.869Z,71.10
2019-03-11T21:07:24.423Z,71.09
2019-03-11T21:10:16.215Z,71.15
2019-03-11T21:13:07.114Z,71.31
2019-03-11T21:15:58.633Z,71.42
2019-03-11T21:18:52.078Z,71.48
2019-03-11T21:21:42.098Z,71.57
2019-03-11T21:24:32.381Z,71.66
2019-03-11T21:27:22.241Z,71.82
2019-03-11T21:30:18.310Z,71.81
2019-03-11T21:33:08.357Z,71.86
2019-03-11T21:35:57.996Z,72.18
2019-03-11T21:38:48.326Z,72.31
2019-03-11T21:41:38.606Z,72.35
2019-03-11T21:44:28.559Z,72.22
2019-03-11T21:47:18.374Z,72.35
2019-03-11T21:50:10.904Z,72.52
2019-03-11T21:53:00.547Z,72.56
2019-03-11T21:55:51.252Z,72.62
2019-03-11T21:58:41.109Z,72.51
2019-03-11T22:01:31.860Z,72.69
2019-03-11T22:04:25.877Z,75.69
2019-03-11T22:07:15.804Z,78.60
2019-03-11T22:10:06.434Z,79.27
2019-03-11T22:12:56.413Z,80.43
2019-03-11T22:15:46.859Z,79.78
2019-03-11T22:18:36.666Z,79.82
2019-03-11T22:21:26.503Z,79.48
2019-03-11T22:24:16.461Z,80.21
2019-03-11T22:27:07.258Z,80.59
2019-03-11T22:29:57.164Z,80.34
2019-03-11T22:32:47.545Z,80.75
2019-03-11T22:35:41.559Z,80.35
2019-03-11T22:38:32.868Z,78.95
2019-03-11T22:41:23.335Z,80.45
2019-03-11T22:44:16.099Z,80.44
2019-03-11T22:47:05.982Z,80.38
2019-03-11T22:49:56.331Z,80.11
2019-03-11T22:52:46.646Z,80.53
2019-03-11T22:55:39.048Z,80.54
2019-03-11T22:58:28.480Z,80.64
2019-03-11T23:01:20.763Z,80.98
2019-03-11T23:04:12.729Z,80.19
2019-03-11T23:07:02.958Z,79.96
2019-03-11T23:09:53.277Z,80.38
2019-03-11T23:12:43.407Z,79.78
2019-03-11T23:15:33.732Z,80.23
2019-03-11T23:18:23.603Z,80.30
2019-03-11T23:21:13.609Z,80.24
2019-03-11T23:24:03.451Z,80.41
2019-03-11T23:26:54.251Z,80.11
2019-03-11T23:29:43.662Z,80.17
2019-03-11T23:32:34.698Z,80.11
2019-03-11T23:35:24.981Z,80.45
2019-03-11T23:38:15.156Z,80.15
2019-03-11T23:41:04.952Z,80.44
2019-03-11T23:43:55.009Z,79.52
2019-03-11T23:46:45.471Z,79.91
2019-03-11T23:49:35.268Z,80.11
2019-03-11T23:52:25.162Z,80.44
2019-03-11T23:55:15.026Z,80.18
2019-03-11T23:58:05.236Z,79.46
